PWSweather.com
Personal Weather Stations
Station Observations
CW4114
Near Downtown, Rogers City, MI 49779

Near DowntownRogers City, MI 49779

Lat: 45.417443, Lon: -83.810642

Elevation: 605

Station Type: Davis Vantage Pro2 w/Solar

Latest ConditionsUpdated 9:30:41 PM EDT Wednesday, Sep 17, 2014
Currently Today's Max Today's Min Today's Average
Temperature 53.8°F12.1°C 68.7°F20.4°C 47.5°F8.6°C 56.7°F13.7°C
Dew Point 50.5°F10.3°C 53.2°F11.8°C 43.5°F6.4°C 48.2°F9.0°C
Winds 2.0 mph NE3.2 kmh NE 8.1 mph WSW13.0 kmh WSW - 3.6 mph 5.8 kmh
Wind Gusts 15.0 mph24.1 kmh 19.0 mph30.6 kmh - -
Humidity 89% 94% 50% 75%
Pressure 29.99 in1015.6 mb 30.00 in1015.9 mb 29.89 in1012.2 mb -
Hour Temp Dew Point Humidity Winds Wind Gusts Pressure Precip Precip Rate Daily Precip Total
09:30 PM 53.8°F12.1°C 50.5°F10.3°C 89% 2.0 mph NE3.2 kmh NE 15.0 mph24.1 kmh 29.99 in1015.6 mb 0.00 in0.0 mm 0.00 in/hr0.0 mm/hr 0.00 in0.0 mm
09:25 PM 53.8°F12.1°C 50.4°F10.2°C 88% 0.9 mph NNW1.4 kmh NNW 8.1 mph13.0 kmh 30.00 in1015.9 mb 0.00 in0.0 mm 0.00 in/hr0.0 mm/hr 0.00 in0.0 mm
09:20 PM 53.8°F12.1°C 49.6°F9.8°C 86% 0.9 mph NW1.4 kmh NW 4.9 mph7.9 kmh 29.99 in1015.6 mb 0.00 in0.0 mm 0.00 in/hr0.0 mm/hr 0.00 in0.0 mm
09:15 PM 53.8°F12.1°C 49.6°F9.8°C 86% 0.9 mph NW1.4 kmh NW 4.9 mph7.9 kmh 29.99 in1015.6 mb 0.00 in0.0 mm 0.00 in/hr0.0 mm/hr 0.00 in0.0 mm
09:10 PM 54.0°F12.2°C 49.6°F9.8°C 85% 0.9 mph W1.4 kmh W 6.0 mph9.7 kmh 29.99 in1015.6 mb 0.00 in0.0 mm 0.00 in/hr0.0 mm/hr 0.00 in0.0 mm
09:05 PM 54.0°F12.2°C 49.6°F9.8°C 85% 0.9 mph SE1.4 kmh SE 6.0 mph9.7 kmh 29.98 in1015.2 mb 0.00 in0.0 mm 0.00 in/hr0.0 mm/hr 0.00 in0.0 mm
09:00 PM 54.0°F12.2°C 49.6°F9.8°C 85% 2.0 mph NNW3.2 kmh NNW 6.9 mph11.1 kmh 29.98 in1015.2 mb 0.00 in0.0 mm 0.00 in/hr0.0 mm/hr 0.00 in0.0 mm
08:55 PM 54.1°F12.3°C 49.8°F9.9°C 85% 2.0 mph N3.2 kmh N 8.1 mph13.0 kmh 29.98 in1015.2 mb 0.00 in0.0 mm 0.00 in/hr0.0 mm/hr 0.00 in0.0 mm
08:50 PM 54.1°F12.3°C 49.5°F9.7°C 84% 0.9 mph NW1.4 kmh NW 7.0 mph11.3 kmh 29.98 in1015.2 mb 0.00 in0.0 mm 0.00 in/hr0.0 mm/hr 0.00 in0.0 mm
08:45 PM 54.3°F12.4°C 49.6°F9.8°C 84% 0.9 mph NNW1.4 kmh NNW 4.0 mph6.4 kmh 29.98 in1015.2 mb 0.00 in0.0 mm 0.00 in/hr0.0 mm/hr 0.00 in0.0 mm
08:40 PM 54.5°F12.5°C 49.8°F9.9°C 84% 2.0 mph N3.2 kmh N 6.0 mph9.7 kmh 29.98 in1015.2 mb 0.00 in0.0 mm 0.00 in/hr0.0 mm/hr 0.00 in0.0 mm
08:35 PM 54.5°F12.5°C 49.5°F9.7°C 83% 0.9 mph N1.4 kmh N 6.0 mph9.7 kmh 29.98 in1015.2 mb 0.00 in0.0 mm 0.00 in/hr0.0 mm/hr 0.00 in0.0 mm
08:30 PM 54.7°F12.6°C 50.0°F10.0°C 84% 0.9 mph NNE1.4 kmh NNE 4.9 mph7.9 kmh 29.98 in1015.2 mb 0.00 in0.0 mm 0.00 in/hr0.0 mm/hr 0.00 in0.0 mm
08:25 PM 54.9°F12.7°C 49.5°F9.7°C 82% 0.9 mph NNW1.4 kmh NNW 4.9 mph7.9 kmh 29.97 in1014.9 mb 0.00 in0.0 mm 0.00 in/hr0.0 mm/hr 0.00 in0.0 mm
08:20 PM 54.9°F12.7°C 49.8°F9.9°C 83% 0.9 mph NE1.4 kmh NE 6.0 mph9.7 kmh 29.97 in1014.9 mb 0.00 in0.0 mm 0.00 in/hr0.0 mm/hr 0.00 in0.0 mm
08:15 PM 55.0°F12.8°C 50.4°F10.2°C 84% 0.9 mph N1.4 kmh N 7.0 mph11.3 kmh 29.97 in1014.9 mb 0.00 in0.0 mm 0.00 in/hr0.0 mm/hr 0.00 in0.0 mm
08:10 PM 55.0°F12.8°C 50.4°F10.2°C 84% 0.9 mph NE1.4 kmh NE 4.9 mph7.9 kmh 29.96 in1014.6 mb 0.00 in0.0 mm 0.00 in/hr0.0 mm/hr 0.00 in0.0 mm
08:05 PM 55.2°F12.9°C 50.5°F10.3°C 84% 0.9 mph NE1.4 kmh NE 4.0 mph6.4 kmh 29.96 in1014.6 mb 0.00 in0.0 mm 0.00 in/hr0.0 mm/hr 0.00 in0.0 mm
08:00 PM 55.2°F12.9°C 51.1°F10.6°C 86% 0.9 mph NE1.4 kmh NE 6.0 mph9.7 kmh 29.96 in1014.6 mb 0.00 in0.0 mm 0.00 in/hr0.0 mm/hr 0.00 in0.0 mm
07:55 PM 55.6°F13.1°C 51.4°F10.8°C 86% 0.9 mph NW1.4 kmh NW 4.0 mph6.4 kmh 29.96 in1014.6 mb 0.00 in0.0 mm 0.00 in/hr0.0 mm/hr 0.00 in0.0 mm
07:50 PM 55.6°F13.1°C 51.4°F10.8°C 86% 2.0 mph NW3.2 kmh NW 8.1 mph13.0 kmh 29.96 in1014.6 mb 0.00 in0.0 mm 0.00 in/hr0.0 mm/hr 0.00 in0.0 mm
07:45 PM 55.8°F13.2°C 52.3°F11.3°C 88% 2.0 mph N3.2 kmh N 6.9 mph11.1 kmh 29.95 in1014.2 mb 0.00 in0.0 mm 0.00 in/hr0.0 mm/hr 0.00 in0.0 mm
07:40 PM 55.9°F13.3°C 52.2°F11.2°C 87% 2.0 mph NW3.2 kmh NW 8.1 mph13.0 kmh 29.95 in1014.2 mb 0.00 in0.0 mm 0.00 in/hr0.0 mm/hr 0.00 in0.0 mm
07:35 PM 56.1°F13.4°C 52.0°F11.1°C 86% 2.0 mph N3.2 kmh N 8.9 mph14.3 kmh 29.95 in1014.2 mb 0.00 in0.0 mm 0.00 in/hr0.0 mm/hr 0.00 in0.0 mm
07:30 PM 56.5°F13.6°C 52.0°F11.1°C 85% 2.0 mph NE3.2 kmh NE 6.9 mph11.1 kmh 29.95 in1014.2 mb 0.00 in0.0 mm 0.00 in/hr0.0 mm/hr 0.00 in0.0 mm
07:25 PM 57.0°F13.9°C 52.0°F11.1°C 83% 2.9 mph N4.7 kmh N 10.1 mph16.3 kmh 29.95 in1014.2 mb 0.00 in0.0 mm 0.00 in/hr0.0 mm/hr 0.00 in0.0 mm
07:20 PM 57.9°F14.4°C 52.2°F11.2°C 81% 4.0 mph NNE6.4 kmh NNE 8.9 mph14.3 kmh 29.94 in1013.9 mb 0.00 in0.0 mm 0.00 in/hr0.0 mm/hr 0.00 in0.0 mm
07:15 PM 59.7°F15.4°C 52.2°F11.2°C 76% 2.9 mph NNE4.7 kmh NNE 14.1 mph22.7 kmh 29.94 in1013.9 mb 0.00 in0.0 mm 0.00 in/hr0.0 mm/hr 0.00 in0.0 mm
07:10 PM 62.4°F16.9°C 50.5°F10.3°C 65% 2.0 mph N3.2 kmh N 10.1 mph16.3 kmh 29.94 in1013.9 mb 0.00 in0.0 mm 0.00 in/hr0.0 mm/hr 0.00 in0.0 mm
07:05 PM 63.0°F17.2°C 46.9°F8.3°C 56% 2.0 mph NW3.2 kmh NW 8.1 mph13.0 kmh 29.92 in1013.2 mb 0.00 in0.0 mm 0.00 in/hr0.0 mm/hr 0.00 in0.0 mm
07:00 PM 63.3°F17.4°C 47.8°F8.8°C 57% 0.9 mph WNW1.4 kmh WNW 6.9 mph11.1 kmh 29.92 in1013.2 mb 0.00 in0.0 mm 0.00 in/hr0.0 mm/hr 0.00 in0.0 mm
06:55 PM 63.7°F17.6°C 48.2°F9.0°C 57% 0.9 mph NW1.4 kmh NW 4.9 mph7.9 kmh 29.92 in1013.2 mb 0.00 in0.0 mm 0.00 in/hr0.0 mm/hr 0.00 in0.0 mm
06:50 PM 63.9°F17.7°C 47.8°F8.8°C 56% 2.0 mph NNW3.2 kmh NNW 7.0 mph11.3 kmh 29.92 in1013.2 mb 0.00 in0.0 mm 0.00 in/hr0.0 mm/hr 0.00 in0.0 mm
06:45 PM 64.0°F17.8°C 47.5°F8.6°C 55% 2.0 mph W3.2 kmh W 4.0 mph6.4 kmh 29.92 in1013.2 mb 0.00 in0.0 mm 0.00 in/hr0.0 mm/hr 0.00 in0.0 mm
06:40 PM 64.0°F17.8°C 47.1°F8.4°C 54% 2.0 mph N3.2 kmh N 6.9 mph11.1 kmh 29.92 in1013.2 mb 0.00 in0.0 mm 0.00 in/hr0.0 mm/hr 0.00 in0.0 mm
06:35 PM 64.2°F17.9°C 47.3°F8.5°C 54% 2.9 mph NNW4.7 kmh NNW 8.1 mph13.0 kmh 29.92 in1013.2 mb 0.00 in0.0 mm 0.00 in/hr0.0 mm/hr 0.00 in0.0 mm
06:30 PM 64.4°F18.0°C 46.9°F8.3°C 53% 4.0 mph W6.4 kmh W 6.9 mph11.1 kmh 29.91 in1012.9 mb 0.00 in0.0 mm 0.00 in/hr0.0 mm/hr 0.00 in0.0 mm
06:25 PM 64.8°F18.2°C 46.8°F8.2°C 52% 4.9 mph W7.9 kmh W 10.1 mph16.3 kmh 29.91 in1012.9 mb 0.00 in0.0 mm 0.00 in/hr0.0 mm/hr 0.00 in0.0 mm
06:20 PM 64.8°F18.2°C 46.8°F8.2°C 52% 4.9 mph W7.9 kmh W 8.9 mph14.3 kmh 29.91 in1012.9 mb 0.00 in0.0 mm 0.00 in/hr0.0 mm/hr 0.00 in0.0 mm
06:15 PM 64.8°F18.2°C 46.8°F8.2°C 52% 6.0 mph WSW9.7 kmh WSW 13.0 mph20.9 kmh 29.91 in1012.9 mb 0.00 in0.0 mm 0.00 in/hr0.0 mm/hr 0.00 in0.0 mm
06:10 PM 64.9°F18.3°C 46.4°F8.0°C 51% 4.9 mph WNW7.9 kmh WNW 16.1 mph25.9 kmh 29.91 in1012.9 mb 0.00 in0.0 mm 0.00 in/hr0.0 mm/hr 0.00 in0.0 mm
06:05 PM 65.1°F18.4°C 48.0°F8.9°C 54% 4.0 mph W6.4 kmh W 11.0 mph17.7 kmh 29.91 in1012.9 mb 0.00 in0.0 mm 0.00 in/hr0.0 mm/hr 0.00 in0.0 mm
06:00 PM 65.3°F18.5°C 48.2°F9.0°C 54% 4.9 mph W7.9 kmh W 10.1 mph16.3 kmh 29.91 in1012.9 mb 0.00 in0.0 mm 0.00 in/hr0.0 mm/hr 0.00 in0.0 mm
05:55 PM 65.5°F18.6°C 48.4°F9.1°C 54% 6.0 mph NNW9.7 kmh NNW 14.1 mph22.7 kmh 29.91 in1012.9 mb 0.00 in0.0 mm 0.00 in/hr0.0 mm/hr 0.00 in0.0 mm
05:50 PM 65.7°F18.7°C 48.6°F9.2°C 54% 6.0 mph WSW9.7 kmh WSW 13.0 mph20.9 kmh 29.91 in1012.9 mb 0.00 in0.0 mm 0.00 in/hr0.0 mm/hr 0.00 in0.0 mm
05:45 PM 65.7°F18.7°C 48.6°F9.2°C 54% 4.0 mph WSW6.4 kmh WSW 11.0 mph17.7 kmh 29.91 in1012.9 mb 0.00 in0.0 mm 0.00 in/hr0.0 mm/hr 0.00 in0.0 mm
05:40 PM 65.3°F18.5°C 49.3°F9.6°C 56% 2.9 mph N4.7 kmh N 6.9 mph11.1 kmh 29.91 in1012.9 mb 0.00 in0.0 mm 0.00 in/hr0.0 mm/hr 0.00 in0.0 mm
05:35 PM 64.9°F18.3°C 48.9°F9.4°C 56% 2.9 mph NW4.7 kmh NW 8.1 mph13.0 kmh 29.91 in1012.9 mb 0.00 in0.0 mm 0.00 in/hr0.0 mm/hr 0.00 in0.0 mm
05:30 PM 64.9°F18.3°C 48.4°F9.1°C 55% 4.0 mph W6.4 kmh W 8.1 mph13.0 kmh 29.91 in1012.9 mb 0.00 in0.0 mm 0.00 in/hr0.0 mm/hr 0.00 in0.0 mm
05:25 PM 65.1°F18.4°C 48.0°F8.9°C 54% 4.0 mph W6.4 kmh W 10.1 mph16.3 kmh 29.90 in1012.5 mb 0.00 in0.0 mm 0.00 in/hr0.0 mm/hr 0.00 in0.0 mm
05:20 PM 65.5°F18.6°C 48.4°F9.1°C 54% 2.9 mph W4.7 kmh W 11.0 mph17.7 kmh 29.90 in1012.5 mb 0.00 in0.0 mm 0.00 in/hr0.0 mm/hr 0.00 in0.0 mm
05:15 PM 65.5°F18.6°C 47.8°F8.8°C 53% 2.9 mph NW4.7 kmh NW 9.0 mph14.5 kmh 29.90 in1012.5 mb 0.00 in0.0 mm 0.00 in/hr0.0 mm/hr 0.00 in0.0 mm
05:10 PM 65.5°F18.6°C 48.4°F9.1°C 54% 2.9 mph WSW4.7 kmh WSW 8.1 mph13.0 kmh 29.90 in1012.5 mb 0.00 in0.0 mm 0.00 in/hr0.0 mm/hr 0.00 in0.0 mm
05:05 PM 65.5°F18.6°C 47.8°F8.8°C 53% 4.0 mph NNW6.4 kmh NNW 8.1 mph13.0 kmh 29.91 in1012.9 mb 0.00 in0.0 mm 0.00 in/hr0.0 mm/hr 0.00 in0.0 mm
05:00 PM 65.5°F18.6°C 47.5°F8.6°C 52% 4.0 mph WNW6.4 kmh WNW 13.0 mph20.9 kmh 29.90 in1012.5 mb 0.00 in0.0 mm 0.00 in/hr0.0 mm/hr 0.00 in0.0 mm
04:55 PM 65.7°F18.7°C 47.1°F8.4°C 51% 4.0 mph NW6.4 kmh NW 6.9 mph11.1 kmh 29.90 in1012.5 mb 0.00 in0.0 mm 0.00 in/hr0.0 mm/hr 0.00 in0.0 mm
04:50 PM 65.8°F18.8°C 47.1°F8.4°C 51% 4.9 mph NW7.9 kmh NW 13.0 mph20.9 kmh 29.90 in1012.5 mb 0.00 in0.0 mm 0.00 in/hr0.0 mm/hr 0.00 in0.0 mm
04:45 PM 66.7°F19.3°C 47.5°F8.6°C 50% 4.9 mph W7.9 kmh W 12.1 mph19.5 kmh 29.90 in1012.5 mb 0.00 in0.0 mm 0.00 in/hr0.0 mm/hr 0.00 in0.0 mm
04:40 PM 67.3°F19.6°C 48.6°F9.2°C 51% 4.0 mph SW6.4 kmh SW 12.1 mph19.5 kmh 29.90 in1012.5 mb 0.00 in0.0 mm 0.00 in/hr0.0 mm/hr 0.00 in0.0 mm
04:35 PM 66.6°F19.2°C 47.8°F8.8°C 51% 2.9 mph W4.7 kmh W 11.0 mph17.7 kmh 29.90 in1012.5 mb 0.00 in0.0 mm 0.00 in/hr0.0 mm/hr 0.00 in0.0 mm
04:30 PM 66.2°F19.0°C 48.0°F8.9°C 52% 2.9 mph WNW4.7 kmh WNW 10.1 mph16.3 kmh 29.90 in1012.5 mb 0.00 in0.0 mm 0.00 in/hr0.0 mm/hr 0.00 in0.0 mm
04:25 PM 66.7°F19.3°C 48.6°F9.2°C 52% 2.9 mph NNE4.7 kmh NNE 8.9 mph14.3 kmh 29.89 in1012.2 mb 0.00 in0.0 mm 0.00 in/hr0.0 mm/hr 0.00 in0.0 mm
04:20 PM 66.7°F19.3°C 49.1°F9.5°C 53% 4.0 mph W6.4 kmh W 10.1 mph16.3 kmh 29.90 in1012.5 mb 0.00 in0.0 mm 0.00 in/hr0.0 mm/hr 0.00 in0.0 mm
04:15 PM 66.9°F19.4°C 48.2°F9.0°C 51% 4.0 mph W6.4 kmh W 10.1 mph16.3 kmh 29.89 in1012.2 mb 0.00 in0.0 mm 0.00 in/hr0.0 mm/hr 0.00 in0.0 mm
04:10 PM 66.9°F19.4°C 49.3°F9.6°C 53% 4.0 mph NNW6.4 kmh NNW 8.9 mph14.3 kmh 29.89 in1012.2 mb 0.00 in0.0 mm 0.00 in/hr0.0 mm/hr 0.00 in0.0 mm
04:05 PM 66.6°F19.2°C 48.4°F9.1°C 52% 4.0 mph WNW6.4 kmh WNW 11.0 mph17.7 kmh 29.90 in1012.5 mb 0.00 in0.0 mm 0.00 in/hr0.0 mm/hr 0.00 in0.0 mm
04:00 PM 66.6°F19.2°C 48.4°F9.1°C 52% 6.0 mph W9.7 kmh W 10.1 mph16.3 kmh 29.89 in1012.2 mb 0.00 in0.0 mm 0.00 in/hr0.0 mm/hr 0.00 in0.0 mm
03:55 PM 67.5°F19.7°C 48.2°F9.0°C 50% 6.0 mph NW9.7 kmh NW 13.0 mph20.9 kmh 29.89 in1012.2 mb 0.00 in0.0 mm 0.00 in/hr0.0 mm/hr 0.00 in0.0 mm
03:50 PM 66.4°F19.1°C 49.3°F9.6°C 54% 4.0 mph WSW6.4 kmh WSW 11.0 mph17.7 kmh 29.89 in1012.2 mb 0.00 in0.0 mm 0.00 in/hr0.0 mm/hr 0.00 in0.0 mm
03:45 PM 66.2°F19.0°C 48.6°F9.2°C 53% 4.0 mph WSW6.4 kmh WSW 11.0 mph17.7 kmh 29.89 in1012.2 mb 0.00 in0.0 mm 0.00 in/hr0.0 mm/hr 0.00 in0.0 mm
03:40 PM 66.2°F19.0°C 49.6°F9.8°C 55% 4.9 mph N7.9 kmh N 12.1 mph19.5 kmh 29.89 in1012.2 mb 0.00 in0.0 mm 0.00 in/hr0.0 mm/hr 0.00 in0.0 mm
03:35 PM 65.8°F18.8°C 49.3°F9.6°C 55% 4.9 mph WNW7.9 kmh WNW 10.1 mph16.3 kmh 29.89 in1012.2 mb 0.00 in0.0 mm 0.00 in/hr0.0 mm/hr 0.00 in0.0 mm
03:30 PM 65.7°F18.7°C 48.6°F9.2°C 54% 4.9 mph NW7.9 kmh NW 11.0 mph17.7 kmh 29.89 in1012.2 mb 0.00 in0.0 mm 0.00 in/hr0.0 mm/hr 0.00 in0.0 mm
03:25 PM 65.7°F18.7°C 49.1°F9.5°C 55% 4.9 mph NNW7.9 kmh NNW 8.9 mph14.3 kmh 29.90 in1012.5 mb 0.00 in0.0 mm 0.00 in/hr0.0 mm/hr 0.00 in0.0 mm
03:20 PM 65.7°F18.7°C 48.6°F9.2°C 54% 4.0 mph WSW6.4 kmh WSW 11.0 mph17.7 kmh 29.90 in1012.5 mb 0.00 in0.0 mm 0.00 in/hr0.0 mm/hr 0.00 in0.0 mm
03:15 PM 65.8°F18.8°C 48.7°F9.3°C 54% 4.0 mph WNW6.4 kmh WNW 10.1 mph16.3 kmh 29.90 in1012.5 mb 0.00 in0.0 mm 0.00 in/hr0.0 mm/hr 0.00 in0.0 mm
03:10 PM 65.8°F18.8°C 48.2°F9.0°C 53% 4.0 mph NW6.4 kmh NW 12.1 mph19.5 kmh 29.89 in1012.2 mb 0.00 in0.0 mm 0.00 in/hr0.0 mm/hr 0.00 in0.0 mm
03:05 PM 65.8°F18.8°C 47.7°F8.7°C 52% 4.9 mph W7.9 kmh W 10.1 mph16.3 kmh 29.89 in1012.2 mb 0.00 in0.0 mm 0.00 in/hr0.0 mm/hr 0.00 in0.0 mm
03:00 PM 66.0°F18.9°C 48.9°F9.4°C 54% 4.9 mph W7.9 kmh W 13.0 mph20.9 kmh 29.89 in1012.2 mb 0.00 in0.0 mm 0.00 in/hr0.0 mm/hr 0.00 in0.0 mm
02:55 PM 66.7°F19.3°C 50.0°F10.0°C 55% 4.0 mph NW6.4 kmh NW 12.1 mph19.5 kmh 29.89 in1012.2 mb 0.00 in0.0 mm 0.00 in/hr0.0 mm/hr 0.00 in0.0 mm
02:50 PM 66.7°F19.3°C 51.1°F10.6°C 57% 4.9 mph NW7.9 kmh NW 10.1 mph16.3 kmh 29.90 in1012.5 mb 0.00 in0.0 mm 0.00 in/hr0.0 mm/hr 0.00 in0.0 mm
02:45 PM 66.6°F19.2°C 49.8°F9.9°C 55% 4.9 mph WNW7.9 kmh WNW 13.0 mph20.9 kmh 29.89 in1012.2 mb 0.00 in0.0 mm 0.00 in/hr0.0 mm/hr 0.00 in0.0 mm
02:40 PM 66.9°F19.4°C 50.2°F10.1°C 55% 4.0 mph NW6.4 kmh NW 8.1 mph13.0 kmh 29.89 in1012.2 mb 0.00 in0.0 mm 0.00 in/hr0.0 mm/hr 0.00 in0.0 mm
02:35 PM 66.4°F19.1°C 50.7°F10.4°C 57% 4.0 mph SW6.4 kmh SW 13.0 mph20.9 kmh 29.89 in1012.2 mb 0.00 in0.0 mm 0.00 in/hr0.0 mm/hr 0.00 in0.0 mm
02:30 PM 65.8°F18.8°C 50.7°F10.4°C 58% 4.0 mph NW6.4 kmh NW 10.1 mph16.3 kmh 29.90 in1012.5 mb 0.00 in0.0 mm 0.00 in/hr0.0 mm/hr 0.00 in0.0 mm
02:25 PM 65.8°F18.8°C 50.2°F10.1°C 57% 4.0 mph NW6.4 kmh NW 14.1 mph22.7 kmh 29.90 in1012.5 mb 0.00 in0.0 mm 0.00 in/hr0.0 mm/hr 0.00 in0.0 mm
02:20 PM 66.4°F19.1°C 50.2°F10.1°C 56% 4.0 mph N6.4 kmh N 12.1 mph19.5 kmh 29.90 in1012.5 mb 0.00 in0.0 mm 0.00 in/hr0.0 mm/hr 0.00 in0.0 mm
02:15 PM 66.9°F19.4°C 48.7°F9.3°C 52% 4.0 mph WNW6.4 kmh WNW 12.1 mph19.5 kmh 29.90 in1012.5 mb 0.00 in0.0 mm 0.00 in/hr0.0 mm/hr 0.00 in0.0 mm
02:10 PM 68.7°F20.4°C 50.4°F10.2°C 52% 6.0 mph NW9.7 kmh NW 15.0 mph24.1 kmh 29.90 in1012.5 mb 0.00 in0.0 mm 0.00 in/hr0.0 mm/hr 0.00 in0.0 mm
02:05 PM 68.2°F20.1°C 50.4°F10.2°C 53% 6.0 mph WSW9.7 kmh WSW 14.1 mph22.7 kmh 29.90 in1012.5 mb 0.00 in0.0 mm 0.00 in/hr0.0 mm/hr 0.00 in0.0 mm
02:00 PM 67.3°F19.6°C 50.5°F10.3°C 55% 4.9 mph WSW7.9 kmh WSW 15.0 mph24.1 kmh 29.90 in1012.5 mb 0.00 in0.0 mm 0.00 in/hr0.0 mm/hr 0.00 in0.0 mm
01:55 PM 66.6°F19.2°C 49.8°F9.9°C 55% 4.9 mph NNW7.9 kmh NNW 11.0 mph17.7 kmh 29.90 in1012.5 mb 0.00 in0.0 mm 0.00 in/hr0.0 mm/hr 0.00 in0.0 mm
01:50 PM 66.4°F19.1°C 50.7°F10.4°C 57% 6.9 mph W11.1 kmh W 15.0 mph24.1 kmh 29.91 in1012.9 mb 0.00 in0.0 mm 0.00 in/hr0.0 mm/hr 0.00 in0.0 mm
01:45 PM 65.5°F18.6°C 50.7°F10.4°C 59% 6.9 mph W11.1 kmh W 19.0 mph30.6 kmh 29.91 in1012.9 mb 0.00 in0.0 mm 0.00 in/hr0.0 mm/hr 0.00 in0.0 mm
01:40 PM 64.9°F18.3°C 49.3°F9.6°C 57% 6.0 mph WSW9.7 kmh WSW 16.1 mph25.9 kmh 29.91 in1012.9 mb 0.00 in0.0 mm 0.00 in/hr0.0 mm/hr 0.00 in0.0 mm
01:35 PM 64.9°F18.3°C 49.3°F9.6°C 57% 6.0 mph W9.7 kmh W 13.0 mph20.9 kmh 29.91 in1012.9 mb 0.00 in0.0 mm 0.00 in/hr0.0 mm/hr 0.00 in0.0 mm
01:30 PM 64.6°F18.1°C 50.0°F10.0°C 59% 4.9 mph WSW7.9 kmh WSW 12.1 mph19.5 kmh 29.91 in1012.9 mb 0.00 in0.0 mm 0.00 in/hr0.0 mm/hr 0.00 in0.0 mm
01:25 PM 64.4°F18.0°C 50.2°F10.1°C 60% 4.9 mph NW7.9 kmh NW 15.0 mph24.1 kmh 29.91 in1012.9 mb 0.00 in0.0 mm 0.00 in/hr0.0 mm/hr 0.00 in0.0 mm
01:20 PM 64.0°F17.8°C 49.8°F9.9°C 60% 4.9 mph NW7.9 kmh NW 10.1 mph16.3 kmh 29.91 in1012.9 mb 0.00 in0.0 mm 0.00 in/hr0.0 mm/hr 0.00 in0.0 mm
01:15 PM 64.9°F18.3°C 50.2°F10.1°C 59% 4.0 mph NW6.4 kmh NW 11.0 mph17.7 kmh 29.91 in1012.9 mb 0.00 in0.0 mm 0.00 in/hr0.0 mm/hr 0.00 in0.0 mm
01:10 PM 65.8°F18.8°C 51.1°F10.6°C 59% 4.0 mph W6.4 kmh W 11.0 mph17.7 kmh 29.91 in1012.9 mb 0.00 in0.0 mm 0.00 in/hr0.0 mm/hr 0.00 in0.0 mm
01:05 PM 65.8°F18.8°C 51.1°F10.6°C 59% 4.9 mph NW7.9 kmh NW 11.0 mph17.7 kmh 29.91 in1012.9 mb 0.00 in0.0 mm 0.00 in/hr0.0 mm/hr 0.00 in0.0 mm
01:00 PM 64.9°F18.3°C 50.7°F10.4°C 60% 4.0 mph WSW6.4 kmh WSW 12.1 mph19.5 kmh 29.91 in1012.9 mb 0.00 in0.0 mm 0.00 in/hr0.0 mm/hr 0.00 in0.0 mm
12:55 PM 66.2°F19.0°C 50.9°F10.5°C 58% 4.0 mph NW6.4 kmh NW 11.0 mph17.7 kmh 29.91 in1012.9 mb 0.00 in0.0 mm 0.00 in/hr0.0 mm/hr 0.00 in0.0 mm
12:50 PM 66.6°F19.2°C 51.3°F10.7°C 58% 6.0 mph NNW9.7 kmh NNW 12.1 mph19.5 kmh 29.91 in1012.9 mb 0.00 in0.0 mm 0.00 in/hr0.0 mm/hr 0.00 in0.0 mm
12:45 PM 66.0°F18.9°C 50.9°F10.5°C 58% 6.0 mph W9.7 kmh W 17.9 mph28.8 kmh 29.91 in1012.9 mb 0.00 in0.0 mm 0.00 in/hr0.0 mm/hr 0.00 in0.0 mm
12:40 PM 66.6°F19.2°C 51.3°F10.7°C 58% 4.9 mph WNW7.9 kmh WNW 14.1 mph22.7 kmh 29.91 in1012.9 mb 0.00 in0.0 mm 0.00 in/hr0.0 mm/hr 0.00 in0.0 mm
12:35 PM 65.8°F18.8°C 51.1°F10.6°C 59% 4.9 mph WSW7.9 kmh WSW 14.1 mph22.7 kmh 29.91 in1012.9 mb 0.00 in0.0 mm 0.00 in/hr0.0 mm/hr 0.00 in0.0 mm
12:30 PM 65.5°F18.6°C 51.3°F10.7°C 60% 4.9 mph NW7.9 kmh NW 11.0 mph17.7 kmh 29.91 in1012.9 mb 0.00 in0.0 mm 0.00 in/hr0.0 mm/hr 0.00 in0.0 mm
12:25 PM 65.5°F18.6°C 50.7°F10.4°C 59% 6.9 mph NW11.1 kmh NW 14.1 mph22.7 kmh 29.91 in1012.9 mb 0.00 in0.0 mm 0.00 in/hr0.0 mm/hr 0.00 in0.0 mm
12:20 PM 65.8°F18.8°C 51.1°F10.6°C 59% 6.9 mph NW11.1 kmh NW 17.9 mph28.8 kmh 29.92 in1013.2 mb 0.00 in0.0 mm 0.00 in/hr0.0 mm/hr 0.00 in0.0 mm
12:15 PM 65.7°F18.7°C 51.8°F11.0°C 61% 6.0 mph WSW9.7 kmh WSW 13.0 mph20.9 kmh 29.92 in1013.2 mb 0.00 in0.0 mm 0.00 in/hr0.0 mm/hr 0.00 in0.0 mm
12:10 PM 64.8°F18.2°C 51.1°F10.6°C 61% 6.0 mph WSW9.7 kmh WSW 15.0 mph24.1 kmh 29.92 in1013.2 mb 0.00 in0.0 mm 0.00 in/hr0.0 mm/hr 0.00 in0.0 mm
12:05 PM 64.9°F18.3°C 52.0°F11.1°C 63% 4.9 mph NW7.9 kmh NW 13.0 mph20.9 kmh 29.92 in1013.2 mb 0.00 in0.0 mm 0.00 in/hr0.0 mm/hr 0.00 in0.0 mm
12:00 PM 64.4°F18.0°C 53.2°F11.8°C 67% 6.0 mph W9.7 kmh W 17.9 mph28.8 kmh 29.92 in1013.2 mb 0.00 in0.0 mm 0.00 in/hr0.0 mm/hr 0.00 in0.0 mm
11:55 AM 64.0°F17.8°C 53.2°F11.8°C 68% 6.0 mph WNW9.7 kmh WNW 12.1 mph19.5 kmh 29.93 in1013.5 mb 0.00 in0.0 mm 0.00 in/hr0.0 mm/hr 0.00 in0.0 mm
11:50 AM 62.4°F16.9°C 52.9°F11.6°C 71% 4.9 mph WSW7.9 kmh WSW 12.1 mph19.5 kmh 29.93 in1013.5 mb 0.00 in0.0 mm 0.00 in/hr0.0 mm/hr 0.00 in0.0 mm
11:45 AM 61.5°F16.4°C 52.3°F11.3°C 72% 6.0 mph WSW9.7 kmh WSW 11.0 mph17.7 kmh 29.93 in1013.5 mb 0.00 in0.0 mm 0.00 in/hr0.0 mm/hr 0.00 in0.0 mm
11:40 AM 61.2°F16.2°C 52.5°F11.4°C 73% 6.0 mph WSW9.7 kmh WSW 12.1 mph19.5 kmh 29.93 in1013.5 mb 0.00 in0.0 mm 0.00 in/hr0.0 mm/hr 0.00 in0.0 mm
11:35 AM 61.2°F16.2°C 52.5°F11.4°C 73% 4.9 mph NW7.9 kmh NW 12.1 mph19.5 kmh 29.93 in1013.5 mb 0.00 in0.0 mm 0.00 in/hr0.0 mm/hr 0.00 in0.0 mm
11:30 AM 61.2°F16.2°C 52.5°F11.4°C 73% 4.9 mph WNW7.9 kmh WNW 8.1 mph13.0 kmh 29.93 in1013.5 mb 0.00 in0.0 mm 0.00 in/hr0.0 mm/hr 0.00 in0.0 mm
11:25 AM 61.0°F16.1°C 53.1°F11.7°C 75% 6.9 mph WSW11.1 kmh WSW 13.0 mph20.9 kmh 29.93 in1013.5 mb 0.00 in0.0 mm 0.00 in/hr0.0 mm/hr 0.00 in0.0 mm
11:20 AM 60.4°F15.8°C 52.9°F11.6°C 76% 8.1 mph W13.0 kmh W 16.0 mph25.7 kmh 29.93 in1013.5 mb 0.00 in0.0 mm 0.00 in/hr0.0 mm/hr 0.00 in0.0 mm
11:15 AM 60.3°F15.7°C 52.7°F11.5°C 76% 8.1 mph WSW13.0 kmh WSW 14.1 mph22.7 kmh 29.93 in1013.5 mb 0.00 in0.0 mm 0.00 in/hr0.0 mm/hr 0.00 in0.0 mm
11:10 AM 59.9°F15.5°C 52.3°F11.3°C 76% 8.1 mph WSW13.0 kmh WSW 16.1 mph25.9 kmh 29.93 in1013.5 mb 0.00 in0.0 mm 0.00 in/hr0.0 mm/hr 0.00 in0.0 mm
11:05 AM 59.5°F15.3°C 52.3°F11.3°C 77% 6.9 mph WSW11.1 kmh WSW 16.1 mph25.9 kmh 29.93 in1013.5 mb 0.00 in0.0 mm 0.00 in/hr0.0 mm/hr 0.00 in0.0 mm
11:00 AM 59.5°F15.3°C 52.3°F11.3°C 77% 6.0 mph W9.7 kmh W 11.0 mph17.7 kmh 29.93 in1013.5 mb 0.00 in0.0 mm 0.00 in/hr0.0 mm/hr 0.00 in0.0 mm
10:55 AM 59.4°F15.2°C 52.2°F11.2°C 77% 6.9 mph W11.1 kmh W 13.0 mph20.9 kmh 29.93 in1013.5 mb 0.00 in0.0 mm 0.00 in/hr0.0 mm/hr 0.00 in0.0 mm
10:50 AM 59.2°F15.1°C 52.0°F11.1°C 77% 6.9 mph WNW11.1 kmh WNW 13.0 mph20.9 kmh 29.93 in1013.5 mb 0.00 in0.0 mm 0.00 in/hr0.0 mm/hr 0.00 in0.0 mm
10:45 AM 59.2°F15.1°C 52.0°F11.1°C 77% 6.9 mph W11.1 kmh W 14.1 mph22.7 kmh 29.93 in1013.5 mb 0.00 in0.0 mm 0.00 in/hr0.0 mm/hr 0.00 in0.0 mm
10:40 AM 59.2°F15.1°C 52.0°F11.1°C 77% 6.9 mph WSW11.1 kmh WSW 12.1 mph19.5 kmh 29.93 in1013.5 mb 0.00 in0.0 mm 0.00 in/hr0.0 mm/hr 0.00 in0.0 mm
10:35 AM 59.2°F15.1°C 52.0°F11.1°C 77% 6.0 mph W9.7 kmh W 16.1 mph25.9 kmh 29.93 in1013.5 mb 0.00 in0.0 mm 0.00 in/hr0.0 mm/hr 0.00 in0.0 mm
10:30 AM 59.2°F15.1°C 52.3°F11.3°C 78% 6.0 mph W9.7 kmh W 12.1 mph19.5 kmh 29.93 in1013.5 mb 0.00 in0.0 mm 0.00 in/hr0.0 mm/hr 0.00 in0.0 mm
10:25 AM 59.0°F15.0°C 52.2°F11.2°C 78% 6.0 mph WSW9.7 kmh WSW 13.0 mph20.9 kmh 29.92 in1013.2 mb 0.00 in0.0 mm 0.00 in/hr0.0 mm/hr 0.00 in0.0 mm
10:20 AM 58.8°F14.9°C 52.3°F11.3°C 79% 6.0 mph W9.7 kmh W 12.1 mph19.5 kmh 29.92 in1013.2 mb 0.00 in0.0 mm 0.00 in/hr0.0 mm/hr 0.00 in0.0 mm
10:15 AM 58.6°F14.8°C 52.2°F11.2°C 79% 6.0 mph WSW9.7 kmh WSW 13.0 mph20.9 kmh 29.93 in1013.5 mb 0.00 in0.0 mm 0.00 in/hr0.0 mm/hr 0.00 in0.0 mm
10:10 AM 58.5°F14.7°C 52.0°F11.1°C 79% 4.9 mph W7.9 kmh W 13.0 mph20.9 kmh 29.93 in1013.5 mb 0.00 in0.0 mm 0.00 in/hr0.0 mm/hr 0.00 in0.0 mm
10:05 AM 58.3°F14.6°C 51.4°F10.8°C 78% 4.9 mph W7.9 kmh W 12.1 mph19.5 kmh 29.93 in1013.5 mb 0.00 in0.0 mm 0.00 in/hr0.0 mm/hr 0.00 in0.0 mm
10:00 AM 58.3°F14.6°C 51.8°F11.0°C 79% 4.9 mph W7.9 kmh W 10.1 mph16.3 kmh 29.93 in1013.5 mb 0.00 in0.0 mm 0.00 in/hr0.0 mm/hr 0.00 in0.0 mm
09:55 AM 58.1°F14.5°C 51.6°F10.9°C 79% 6.0 mph W9.7 kmh W 10.1 mph16.3 kmh 29.93 in1013.5 mb 0.00 in0.0 mm 0.00 in/hr0.0 mm/hr 0.00 in0.0 mm
09:50 AM 57.9°F14.4°C 51.4°F10.8°C 79% 6.0 mph SW9.7 kmh SW 11.0 mph17.7 kmh 29.93 in1013.5 mb 0.00 in0.0 mm 0.00 in/hr0.0 mm/hr 0.00 in0.0 mm
09:45 AM 57.7°F14.3°C 51.3°F10.7°C 79% 6.0 mph W9.7 kmh W 12.1 mph19.5 kmh 29.93 in1013.5 mb 0.00 in0.0 mm 0.00 in/hr0.0 mm/hr 0.00 in0.0 mm
09:40 AM 57.6°F14.2°C 51.1°F10.6°C 79% 6.9 mph W11.1 kmh W 8.9 mph14.3 kmh 29.93 in1013.5 mb 0.00 in0.0 mm 0.00 in/hr0.0 mm/hr 0.00 in0.0 mm
09:35 AM 57.4°F14.1°C 51.3°F10.7°C 80% 6.9 mph WSW11.1 kmh WSW 12.1 mph19.5 kmh 29.93 in1013.5 mb 0.00 in0.0 mm 0.00 in/hr0.0 mm/hr 0.00 in0.0 mm
09:30 AM 56.7°F13.7°C 50.9°F10.5°C 81% 6.0 mph W9.7 kmh W 12.1 mph19.5 kmh 29.93 in1013.5 mb 0.00 in0.0 mm 0.00 in/hr0.0 mm/hr 0.00 in0.0 mm
09:25 AM 55.8°F13.2°C 50.7°F10.4°C 83% 6.0 mph W9.7 kmh W 8.9 mph14.3 kmh 29.93 in1013.5 mb 0.00 in0.0 mm 0.00 in/hr0.0 mm/hr 0.00 in0.0 mm
09:20 AM 55.2°F12.9°C 50.2°F10.1°C 83% 6.0 mph W9.7 kmh W 11.0 mph17.7 kmh 29.93 in1013.5 mb 0.00 in0.0 mm 0.00 in/hr0.0 mm/hr 0.00 in0.0 mm
09:15 AM 54.9°F12.7°C 50.4°F10.2°C 85% 4.9 mph W7.9 kmh W 11.0 mph17.7 kmh 29.93 in1013.5 mb 0.00 in0.0 mm 0.00 in/hr0.0 mm/hr 0.00 in0.0 mm
09:10 AM 54.3°F12.4°C 50.2°F10.1°C 86% 4.0 mph WSW6.4 kmh WSW 8.1 mph13.0 kmh 29.93 in1013.5 mb 0.00 in0.0 mm 0.00 in/hr0.0 mm/hr 0.00 in0.0 mm
09:05 AM 53.1°F11.7°C 49.8°F9.9°C 89% 2.9 mph WSW4.7 kmh WSW 7.0 mph11.3 kmh 29.93 in1013.5 mb 0.00 in0.0 mm 0.00 in/hr0.0 mm/hr 0.00 in0.0 mm
09:00 AM 52.5°F11.4°C 49.5°F9.7°C 89% 2.9 mph W4.7 kmh W 7.0 mph11.3 kmh 29.93 in1013.5 mb 0.00 in0.0 mm 0.00 in/hr0.0 mm/hr 0.00 in0.0 mm
08:55 AM 52.3°F11.3°C 49.3°F9.6°C 89% 2.9 mph WSW4.7 kmh WSW 6.0 mph9.7 kmh 29.94 in1013.9 mb 0.00 in0.0 mm 0.00 in/hr0.0 mm/hr 0.00 in0.0 mm
08:50 AM 52.2°F11.2°C 49.1°F9.5°C 89% 2.9 mph W4.7 kmh W 6.0 mph9.7 kmh 29.94 in1013.9 mb 0.00 in0.0 mm 0.00 in/hr0.0 mm/hr 0.00 in0.0 mm
08:45 AM 52.0°F11.1°C 49.1°F9.5°C 90% 2.9 mph SW4.7 kmh SW 6.9 mph11.1 kmh 29.94 in1013.9 mb 0.00 in0.0 mm 0.00 in/hr0.0 mm/hr 0.00 in0.0 mm
08:40 AM 51.6°F10.9°C 48.7°F9.3°C 90% 2.9 mph WSW4.7 kmh WSW 4.0 mph6.4 kmh 29.94 in1013.9 mb 0.00 in0.0 mm 0.00 in/hr0.0 mm/hr 0.00 in0.0 mm
08:35 AM 51.3°F10.7°C 48.7°F9.3°C 91% 2.9 mph SW4.7 kmh SW 6.0 mph9.7 kmh 29.94 in1013.9 mb 0.00 in0.0 mm 0.00 in/hr0.0 mm/hr 0.00 in0.0 mm
08:30 AM 50.9°F10.5°C 48.4°F9.1°C 91% 2.9 mph WSW4.7 kmh WSW 6.9 mph11.1 kmh 29.95 in1014.2 mb 0.00 in0.0 mm 0.00 in/hr0.0 mm/hr 0.00 in0.0 mm
08:25 AM 50.5°F10.3°C 48.4°F9.1°C 92% 2.9 mph SW4.7 kmh SW 6.0 mph9.7 kmh 29.95 in1014.2 mb 0.00 in0.0 mm 0.00 in/hr0.0 mm/hr 0.00 in0.0 mm
08:20 AM 50.2°F10.1°C 48.0°F8.9°C 92% 2.9 mph SW4.7 kmh SW 6.9 mph11.1 kmh 29.95 in1014.2 mb 0.00 in0.0 mm 0.00 in/hr0.0 mm/hr 0.00 in0.0 mm
08:15 AM 49.8°F9.9°C 47.8°F8.8°C 93% 2.0 mph SW3.2 kmh SW 6.0 mph9.7 kmh 29.95 in1014.2 mb 0.00 in0.0 mm 0.00 in/hr0.0 mm/hr 0.00 in0.0 mm
08:10 AM 49.5°F9.7°C 47.5°F8.6°C 93% 0.9 mph SW1.4 kmh SW 4.0 mph6.4 kmh 29.95 in1014.2 mb 0.00 in0.0 mm 0.00 in/hr0.0 mm/hr 0.00 in0.0 mm
08:05 AM 49.3°F9.6°C 47.7°F8.7°C 94% 0.9 mph WSW1.4 kmh WSW 2.9 mph4.7 kmh 29.95 in1014.2 mb 0.00 in0.0 mm 0.00 in/hr0.0 mm/hr 0.00 in0.0 mm
08:00 AM 48.9°F9.4°C 47.3°F8.5°C 94% 0.9 mph SW1.4 kmh SW 2.9 mph4.7 kmh 29.95 in1014.2 mb 0.00 in0.0 mm 0.00 in/hr0.0 mm/hr 0.00 in0.0 mm
07:55 AM 48.7°F9.3°C 47.1°F8.4°C 94% 0.9 mph W1.4 kmh W 2.9 mph4.7 kmh 29.95 in1014.2 mb 0.00 in0.0 mm 0.00 in/hr0.0 mm/hr 0.00 in0.0 mm
07:50 AM 48.6°F9.2°C 46.9°F8.3°C 94% 0.9 mph W1.4 kmh W 2.9 mph4.7 kmh 29.96 in1014.6 mb 0.00 in0.0 mm 0.00 in/hr0.0 mm/hr 0.00 in0.0 mm
07:45 AM 48.4°F9.1°C 46.8°F8.2°C 94% 0.9 mph W1.4 kmh W 2.0 mph3.2 kmh 29.95 in1014.2 mb 0.00 in0.0 mm 0.00 in/hr0.0 mm/hr 0.00 in0.0 mm
07:40 AM 48.4°F9.1°C 46.8°F8.2°C 94% Calm Calm 2.0 mph3.2 kmh 29.95 in1014.2 mb 0.00 in0.0 mm 0.00 in/hr0.0 mm/hr 0.00 in0.0 mm
07:35 AM 48.2°F9.0°C 46.6°F8.1°C 94% Calm Calm -- 29.95 in1014.2 mb 0.00 in0.0 mm 0.00 in/hr0.0 mm/hr 0.00 in0.0 mm
07:30 AM 48.0°F8.9°C 46.4°F8.0°C 94% Calm Calm -- 29.95 in1014.2 mb 0.00 in0.0 mm 0.00 in/hr0.0 mm/hr 0.00 in0.0 mm
07:25 AM 48.2°F9.0°C 46.6°F8.1°C 94% Calm Calm -- 29.95 in1014.2 mb 0.00 in0.0 mm 0.00 in/hr0.0 mm/hr 0.00 in0.0 mm
07:20 AM 48.2°F9.0°C 46.2°F7.9°C 93% Calm Calm -- 29.95 in1014.2 mb 0.00 in0.0 mm 0.00 in/hr0.0 mm/hr 0.00 in0.0 mm
07:15 AM 48.2°F9.0°C 46.2°F7.9°C 93% Calm Calm -- 29.95 in1014.2 mb 0.00 in0.0 mm 0.00 in/hr0.0 mm/hr 0.00 in0.0 mm
07:10 AM 48.0°F8.9°C 46.0°F7.8°C 93% Calm Calm -- 29.95 in1014.2 mb 0.00 in0.0 mm 0.00 in/hr0.0 mm/hr 0.00 in0.0 mm
07:05 AM 48.0°F8.9°C 46.0°F7.8°C 93% Calm Calm -- 29.95 in1014.2 mb 0.00 in0.0 mm 0.00 in/hr0.0 mm/hr 0.00 in0.0 mm
07:00 AM 48.0°F8.9°C 46.0°F7.8°C 93% Calm Calm -- 29.95 in1014.2 mb 0.00 in0.0 mm 0.00 in/hr0.0 mm/hr 0.00 in0.0 mm
06:55 AM 48.0°F8.9°C 46.0°F7.8°C 93% Calm Calm -- 29.95 in1014.2 mb 0.00 in0.0 mm 0.00 in/hr0.0 mm/hr 0.00 in0.0 mm
06:50 AM 48.0°F8.9°C 46.0°F7.8°C 93% Calm Calm 0.9 mph1.4 kmh 29.95 in1014.2 mb 0.00 in0.0 mm 0.00 in/hr0.0 mm/hr 0.00 in0.0 mm
06:45 AM 48.0°F8.9°C 46.0°F7.8°C 93% Calm Calm 0.9 mph1.4 kmh 29.95 in1014.2 mb 0.00 in0.0 mm 0.00 in/hr0.0 mm/hr 0.00 in0.0 mm
06:40 AM 48.0°F8.9°C 46.0°F7.8°C 93% Calm Calm 0.9 mph1.4 kmh 29.95 in1014.2 mb 0.00 in0.0 mm 0.00 in/hr0.0 mm/hr 0.00 in0.0 mm
06:35 AM 47.8°F8.8°C 45.9°F7.7°C 93% Calm Calm 2.0 mph3.2 kmh 29.95 in1014.2 mb 0.00 in0.0 mm 0.00 in/hr0.0 mm/hr 0.00 in0.0 mm
06:30 AM 48.0°F8.9°C 46.0°F7.8°C 93% Calm Calm 0.9 mph1.4 kmh 29.95 in1014.2 mb 0.00 in0.0 mm 0.00 in/hr0.0 mm/hr 0.00 in0.0 mm
06:25 AM 47.8°F8.8°C 45.9°F7.7°C 93% Calm Calm 1.0 mph1.6 kmh 29.95 in1014.2 mb 0.00 in0.0 mm 0.00 in/hr0.0 mm/hr 0.00 in0.0 mm
06:20 AM 48.0°F8.9°C 46.0°F7.8°C 93% Calm Calm -- 29.95 in1014.2 mb 0.00 in0.0 mm 0.00 in/hr0.0 mm/hr 0.00 in0.0 mm
06:14 AM 47.8°F8.8°C 45.9°F7.7°C 93% Calm Calm -- 29.95 in1014.2 mb 0.00 in0.0 mm 0.00 in/hr0.0 mm/hr 0.00 in0.0 mm
06:09 AM 47.8°F8.8°C 45.9°F7.7°C 93% Calm Calm -- 29.95 in1014.2 mb 0.00 in0.0 mm 0.00 in/hr0.0 mm/hr 0.00 in0.0 mm
06:04 AM 47.8°F8.8°C 45.9°F7.7°C 93% Calm Calm -- 29.95 in1014.2 mb 0.00 in0.0 mm 0.00 in/hr0.0 mm/hr 0.00 in0.0 mm
05:59 AM 47.7°F8.7°C 45.5°F7.5°C 92% Calm Calm -- 29.95 in1014.2 mb 0.00 in0.0 mm 0.00 in/hr0.0 mm/hr 0.00 in0.0 mm
05:54 AM 47.7°F8.7°C 45.5°F7.5°C 92% Calm Calm -- 29.95 in1014.2 mb 0.00 in0.0 mm 0.00 in/hr0.0 mm/hr 0.00 in0.0 mm
05:49 AM 47.7°F8.7°C 45.5°F7.5°C 92% Calm Calm -- 29.95 in1014.2 mb 0.00 in0.0 mm 0.00 in/hr0.0 mm/hr 0.00 in0.0 mm
05:44 AM 47.7°F8.7°C 45.5°F7.5°C 92% Calm Calm -- 29.95 in1014.2 mb 0.00 in0.0 mm 0.00 in/hr0.0 mm/hr 0.00 in0.0 mm
05:39 AM 47.7°F8.7°C 45.5°F7.5°C 92% Calm Calm -- 29.95 in1014.2 mb 0.00 in0.0 mm 0.00 in/hr0.0 mm/hr 0.00 in0.0 mm
05:34 AM 47.7°F8.7°C 45.5°F7.5°C 92% Calm Calm -- 29.95 in1014.2 mb 0.00 in0.0 mm 0.00 in/hr0.0 mm/hr 0.00 in0.0 mm
05:29 AM 47.7°F8.7°C 45.5°F7.5°C 92% Calm Calm -- 29.96 in1014.6 mb 0.00 in0.0 mm 0.00 in/hr0.0 mm/hr 0.00 in0.0 mm
05:24 AM 47.7°F8.7°C 45.5°F7.5°C 92% Calm Calm -- 29.95 in1014.2 mb 0.00 in0.0 mm 0.00 in/hr0.0 mm/hr 0.00 in0.0 mm
05:19 AM 47.7°F8.7°C 45.5°F7.5°C 92% Calm Calm -- 29.96 in1014.6 mb 0.00 in0.0 mm 0.00 in/hr0.0 mm/hr 0.00 in0.0 mm
05:14 AM 47.7°F8.7°C 45.5°F7.5°C 92% Calm Calm -- 29.95 in1014.2 mb 0.00 in0.0 mm 0.00 in/hr0.0 mm/hr 0.00 in0.0 mm
05:09 AM 47.7°F8.7°C 45.1°F7.3°C 91% Calm Calm -- 29.96 in1014.6 mb 0.00 in0.0 mm 0.00 in/hr0.0 mm/hr 0.00 in0.0 mm
05:04 AM 47.7°F8.7°C 45.1°F7.3°C 91% Calm Calm -- 29.96 in1014.6 mb 0.00 in0.0 mm 0.00 in/hr0.0 mm/hr 0.00 in0.0 mm
04:59 AM 47.5°F8.6°C 45.0°F7.2°C 91% Calm Calm -- 29.96 in1014.6 mb 0.00 in0.0 mm 0.00 in/hr0.0 mm/hr 0.00 in0.0 mm
04:54 AM 47.7°F8.7°C 45.0°F7.2°C 90% Calm Calm -- 29.96 in1014.6 mb 0.00 in0.0 mm 0.00 in/hr0.0 mm/hr 0.00 in0.0 mm
04:49 AM 47.7°F8.7°C 45.0°F7.2°C 90% 0.9 mph WSW1.4 kmh WSW -- 29.96 in1014.6 mb 0.00 in0.0 mm 0.00 in/hr0.0 mm/hr 0.00 in0.0 mm
04:44 AM 47.8°F8.8°C 44.8°F7.1°C 89% 0.9 mph WSW1.4 kmh WSW 2.9 mph4.7 kmh 29.96 in1014.6 mb 0.00 in0.0 mm 0.00 in/hr0.0 mm/hr 0.00 in0.0 mm
04:39 AM 47.8°F8.8°C 44.8°F7.1°C 89% Calm Calm -- 29.96 in1014.6 mb 0.00 in0.0 mm 0.00 in/hr0.0 mm/hr 0.00 in0.0 mm
04:34 AM 48.0°F8.9°C 45.0°F7.2°C 89% Calm Calm 0.9 mph1.4 kmh 29.97 in1014.9 mb 0.00 in0.0 mm 0.00 in/hr0.0 mm/hr 0.00 in0.0 mm
04:29 AM 48.2°F9.0°C 44.8°F7.1°C 88% Calm Calm 2.0 mph3.2 kmh 29.97 in1014.9 mb 0.00 in0.0 mm 0.00 in/hr0.0 mm/hr 0.00 in0.0 mm
04:24 AM 48.4°F9.1°C 44.8°F7.1°C 87% Calm Calm 0.9 mph1.4 kmh 29.97 in1014.9 mb 0.00 in0.0 mm 0.00 in/hr0.0 mm/hr 0.00 in0.0 mm
04:19 AM 48.6°F9.2°C 44.8°F7.1°C 87% 0.9 mph NE1.4 kmh NE 0.9 mph1.4 kmh 29.97 in1014.9 mb 0.00 in0.0 mm 0.00 in/hr0.0 mm/hr 0.00 in0.0 mm
04:14 AM 48.7°F9.3°C 45.0°F7.2°C 87% 2.9 mph W4.7 kmh W 4.9 mph7.9 kmh 29.97 in1014.9 mb 0.00 in0.0 mm 0.00 in/hr0.0 mm/hr 0.00 in0.0 mm
04:09 AM 48.7°F9.3°C 45.0°F7.2°C 87% 4.0 mph W6.4 kmh W 6.9 mph11.1 kmh 29.97 in1014.9 mb 0.00 in0.0 mm 0.00 in/hr0.0 mm/hr 0.00 in0.0 mm
04:04 AM 48.9°F9.4°C 45.1°F7.3°C 87% 4.9 mph W7.9 kmh W 8.1 mph13.0 kmh 29.96 in1014.6 mb 0.00 in0.0 mm 0.00 in/hr0.0 mm/hr 0.00 in0.0 mm
03:59 AM 49.1°F9.5°C 45.1°F7.3°C 86% 4.9 mph W7.9 kmh W 6.9 mph11.1 kmh 29.96 in1014.6 mb 0.00 in0.0 mm 0.00 in/hr0.0 mm/hr 0.00 in0.0 mm
03:54 AM 49.3°F9.6°C 45.3°F7.4°C 86% 4.9 mph W7.9 kmh W 8.1 mph13.0 kmh 29.96 in1014.6 mb 0.00 in0.0 mm 0.00 in/hr0.0 mm/hr 0.00 in0.0 mm
03:49 AM 49.5°F9.7°C 45.5°F7.5°C 86% 4.9 mph WNW7.9 kmh WNW 8.1 mph13.0 kmh 29.96 in1014.6 mb 0.00 in0.0 mm 0.00 in/hr0.0 mm/hr 0.00 in0.0 mm
03:44 AM 49.5°F9.7°C 45.1°F7.3°C 85% 4.9 mph WSW7.9 kmh WSW 8.9 mph14.3 kmh 29.96 in1014.6 mb 0.00 in0.0 mm 0.00 in/hr0.0 mm/hr 0.00 in0.0 mm
03:39 AM 49.6°F9.8°C 45.3°F7.4°C 85% 4.9 mph WSW7.9 kmh WSW 8.9 mph14.3 kmh 29.96 in1014.6 mb 0.00 in0.0 mm 0.00 in/hr0.0 mm/hr 0.00 in0.0 mm
03:34 AM 49.6°F9.8°C 45.3°F7.4°C 85% 6.0 mph WSW9.7 kmh WSW 10.1 mph16.3 kmh 29.96 in1014.6 mb 0.00 in0.0 mm 0.00 in/hr0.0 mm/hr 0.00 in0.0 mm
03:29 AM 49.6°F9.8°C 45.3°F7.4°C 85% 6.0 mph WSW9.7 kmh WSW 8.9 mph14.3 kmh 29.96 in1014.6 mb 0.00 in0.0 mm 0.00 in/hr0.0 mm/hr 0.00 in0.0 mm
03:24 AM 49.6°F9.8°C 45.3°F7.4°C 85% 6.0 mph WSW9.7 kmh WSW 8.9 mph14.3 kmh 29.96 in1014.6 mb 0.00 in0.0 mm 0.00 in/hr0.0 mm/hr 0.00 in0.0 mm
03:19 AM 49.6°F9.8°C 45.3°F7.4°C 85% 6.0 mph WSW9.7 kmh WSW 8.9 mph14.3 kmh 29.97 in1014.9 mb 0.00 in0.0 mm 0.00 in/hr0.0 mm/hr 0.00 in0.0 mm
03:14 AM 49.6°F9.8°C 45.3°F7.4°C 85% 4.9 mph WSW7.9 kmh WSW 10.1 mph16.3 kmh 29.97 in1014.9 mb 0.00 in0.0 mm 0.00 in/hr0.0 mm/hr 0.00 in0.0 mm
03:09 AM 49.6°F9.8°C 45.3°F7.4°C 85% 6.0 mph WSW9.7 kmh WSW 8.9 mph14.3 kmh 29.97 in1014.9 mb 0.00 in0.0 mm 0.00 in/hr0.0 mm/hr 0.00 in0.0 mm
03:04 AM 49.5°F9.7°C 45.1°F7.3°C 85% 6.0 mph WSW9.7 kmh WSW 11.0 mph17.7 kmh 29.97 in1014.9 mb 0.00 in0.0 mm 0.00 in/hr0.0 mm/hr 0.00 in0.0 mm
02:59 AM 49.5°F9.7°C 44.8°F7.1°C 84% 6.0 mph W9.7 kmh W 10.1 mph16.3 kmh 29.97 in1014.9 mb 0.00 in0.0 mm 0.00 in/hr0.0 mm/hr 0.00 in0.0 mm
02:54 AM 49.5°F9.7°C 44.8°F7.1°C 84% 6.0 mph WSW9.7 kmh WSW 8.9 mph14.3 kmh 29.97 in1014.9 mb 0.00 in0.0 mm 0.00 in/hr0.0 mm/hr 0.00 in0.0 mm
02:49 AM 49.3°F9.6°C 44.6°F7.0°C 84% 6.0 mph W9.7 kmh W 10.1 mph16.3 kmh 29.97 in1014.9 mb 0.00 in0.0 mm 0.00 in/hr0.0 mm/hr 0.00 in0.0 mm
02:44 AM 49.5°F9.7°C 44.8°F7.1°C 84% 6.0 mph WSW9.7 kmh WSW 8.9 mph14.3 kmh 29.97 in1014.9 mb 0.00 in0.0 mm 0.00 in/hr0.0 mm/hr 0.00 in0.0 mm
02:39 AM 49.5°F9.7°C 44.6°F7.0°C 83% 4.9 mph SW7.9 kmh SW 10.1 mph16.3 kmh 29.97 in1014.9 mb 0.00 in0.0 mm 0.00 in/hr0.0 mm/hr 0.00 in0.0 mm
02:34 AM 49.6°F9.8°C 44.8°F7.1°C 83% 4.9 mph WSW7.9 kmh WSW 8.9 mph14.3 kmh 29.98 in1015.2 mb 0.00 in0.0 mm 0.00 in/hr0.0 mm/hr 0.00 in0.0 mm
02:29 AM 49.8°F9.9°C 44.8°F7.1°C 83% 4.9 mph WSW7.9 kmh WSW 10.1 mph16.3 kmh 29.97 in1014.9 mb 0.00 in0.0 mm 0.00 in/hr0.0 mm/hr 0.00 in0.0 mm
02:24 AM 50.0°F10.0°C 44.8°F7.1°C 82% 4.9 mph WSW7.9 kmh WSW 8.9 mph14.3 kmh 29.98 in1015.2 mb 0.00 in0.0 mm 0.00 in/hr0.0 mm/hr 0.00 in0.0 mm
02:19 AM 50.2°F10.1°C 45.0°F7.2°C 82% 4.9 mph WSW7.9 kmh WSW 8.1 mph13.0 kmh 29.97 in1014.9 mb 0.00 in0.0 mm 0.00 in/hr0.0 mm/hr 0.00 in0.0 mm
02:14 AM 50.2°F10.1°C 45.0°F7.2°C 82% 4.9 mph WSW7.9 kmh WSW 8.9 mph14.3 kmh 29.97 in1014.9 mb 0.00 in0.0 mm 0.00 in/hr0.0 mm/hr 0.00 in0.0 mm
02:09 AM 50.2°F10.1°C 45.0°F7.2°C 82% 4.9 mph WSW7.9 kmh WSW 11.0 mph17.7 kmh 29.97 in1014.9 mb 0.00 in0.0 mm 0.00 in/hr0.0 mm/hr 0.00 in0.0 mm
02:04 AM 50.2°F10.1°C 45.0°F7.2°C 82% 4.9 mph W7.9 kmh W 9.0 mph14.5 kmh 29.97 in1014.9 mb 0.00 in0.0 mm 0.00 in/hr0.0 mm/hr 0.00 in0.0 mm
01:59 AM 50.2°F10.1°C 45.0°F7.2°C 82% 4.9 mph SW7.9 kmh SW 6.9 mph11.1 kmh 29.97 in1014.9 mb 0.00 in0.0 mm 0.00 in/hr0.0 mm/hr 0.00 in0.0 mm
01:54 AM 50.2°F10.1°C 45.0°F7.2°C 82% 4.9 mph WSW7.9 kmh WSW 8.1 mph13.0 kmh 29.97 in1014.9 mb 0.00 in0.0 mm 0.00 in/hr0.0 mm/hr 0.00 in0.0 mm
01:49 AM 50.2°F10.1°C 44.6°F7.0°C 81% 4.9 mph WSW7.9 kmh WSW 8.9 mph14.3 kmh 29.98 in1015.2 mb 0.00 in0.0 mm 0.00 in/hr0.0 mm/hr 0.00 in0.0 mm
01:44 AM 49.8°F9.9°C 44.2°F6.8°C 81% 4.9 mph WSW7.9 kmh WSW 10.1 mph16.3 kmh 29.97 in1014.9 mb 0.00 in0.0 mm 0.00 in/hr0.0 mm/hr 0.00 in0.0 mm
01:39 AM 49.8°F9.9°C 44.2°F6.8°C 81% 4.9 mph WSW7.9 kmh WSW 8.1 mph13.0 kmh 29.98 in1015.2 mb 0.00 in0.0 mm 0.00 in/hr0.0 mm/hr 0.00 in0.0 mm
01:34 AM 49.8°F9.9°C 44.2°F6.8°C 81% 4.9 mph WSW7.9 kmh WSW 10.1 mph16.3 kmh 29.98 in1015.2 mb 0.00 in0.0 mm 0.00 in/hr0.0 mm/hr 0.00 in0.0 mm
01:29 AM 49.8°F9.9°C 44.2°F6.8°C 81% 4.9 mph WSW7.9 kmh WSW 8.1 mph13.0 kmh 29.97 in1014.9 mb 0.00 in0.0 mm 0.00 in/hr0.0 mm/hr 0.00 in0.0 mm
01:24 AM 49.8°F9.9°C 43.9°F6.6°C 80% 6.0 mph WSW9.7 kmh WSW 10.1 mph16.3 kmh 29.98 in1015.2 mb 0.00 in0.0 mm 0.00 in/hr0.0 mm/hr 0.00 in0.0 mm
01:19 AM 49.8°F9.9°C 43.9°F6.6°C 80% 4.9 mph SW7.9 kmh SW 8.9 mph14.3 kmh 29.98 in1015.2 mb 0.00 in0.0 mm 0.00 in/hr0.0 mm/hr 0.00 in0.0 mm
01:14 AM 50.0°F10.0°C 44.1°F6.7°C 80% 4.9 mph WSW7.9 kmh WSW 8.9 mph14.3 kmh 29.98 in1015.2 mb 0.00 in0.0 mm 0.00 in/hr0.0 mm/hr 0.00 in0.0 mm
01:09 AM 50.0°F10.0°C 44.1°F6.7°C 80% 4.9 mph W7.9 kmh W 8.9 mph14.3 kmh 29.98 in1015.2 mb 0.00 in0.0 mm 0.00 in/hr0.0 mm/hr 0.00 in0.0 mm
01:04 AM 50.0°F10.0°C 44.1°F6.7°C 80% 4.9 mph W7.9 kmh W 8.9 mph14.3 kmh 29.98 in1015.2 mb 0.00 in0.0 mm 0.00 in/hr0.0 mm/hr 0.00 in0.0 mm
12:59 AM 50.2°F10.1°C 43.9°F6.6°C 79% 4.9 mph WSW7.9 kmh WSW 8.1 mph13.0 kmh 29.98 in1015.2 mb 0.00 in0.0 mm 0.00 in/hr0.0 mm/hr 0.00 in0.0 mm
12:54 AM 50.2°F10.1°C 43.9°F6.6°C 79% 4.9 mph WSW7.9 kmh WSW 12.1 mph19.5 kmh 29.98 in1015.2 mb 0.00 in0.0 mm 0.00 in/hr0.0 mm/hr 0.00 in0.0 mm
12:49 AM 50.4°F10.2°C 44.1°F6.7°C 79% 4.9 mph W7.9 kmh W 12.1 mph19.5 kmh 29.98 in1015.2 mb 0.00 in0.0 mm 0.00 in/hr0.0 mm/hr 0.00 in0.0 mm
12:44 AM 50.4°F10.2°C 44.1°F6.7°C 79% 4.9 mph WSW7.9 kmh WSW 8.1 mph13.0 kmh 29.98 in1015.2 mb 0.00 in0.0 mm 0.00 in/hr0.0 mm/hr 0.00 in0.0 mm
12:39 AM 50.5°F10.3°C 43.9°F6.6°C 78% 4.9 mph W7.9 kmh W 8.9 mph14.3 kmh 29.98 in1015.2 mb 0.00 in0.0 mm 0.00 in/hr0.0 mm/hr 0.00 in0.0 mm
12:34 AM 50.5°F10.3°C 43.5°F6.4°C 77% 4.9 mph WSW7.9 kmh WSW 8.9 mph14.3 kmh 29.98 in1015.2 mb 0.00 in0.0 mm 0.00 in/hr0.0 mm/hr 0.00 in0.0 mm
12:29 AM 50.7°F10.4°C 43.7°F6.5°C 77% 4.9 mph WSW7.9 kmh WSW 8.1 mph13.0 kmh 29.98 in1015.2 mb 0.00 in0.0 mm 0.00 in/hr0.0 mm/hr 0.00 in0.0 mm
12:24 AM 51.1°F10.6°C 43.7°F6.5°C 76% 4.9 mph W7.9 kmh W 8.9 mph14.3 kmh 29.99 in1015.6 mb 0.00 in0.0 mm 0.00 in/hr0.0 mm/hr 0.00 in0.0 mm
12:19 AM 51.4°F10.8°C 44.1°F6.7°C 76% 6.0 mph W9.7 kmh W 6.9 mph11.1 kmh 29.99 in1015.6 mb 0.00 in0.0 mm 0.00 in/hr0.0 mm/hr 0.00 in0.0 mm
12:14 AM 51.6°F10.9°C 43.9°F6.6°C 75% 6.0 mph W9.7 kmh W 8.1 mph13.0 kmh 29.99 in1015.6 mb 0.00 in0.0 mm 0.00 in/hr0.0 mm/hr 0.00 in0.0 mm
12:09 AM 51.8°F11.0°C 43.7°F6.5°C 74% 4.9 mph W7.9 kmh W 8.1 mph13.0 kmh 29.99 in1015.6 mb 0.00 in0.0 mm 0.00 in/hr0.0 mm/hr 0.00 in0.0 mm
12:04 AM 52.2°F11.2°C 44.1°F6.7°C 74% 4.9 mph WSW7.9 kmh WSW 8.9 mph14.3 kmh 29.98 in1015.2 mb 0.00 in0.0 mm 0.00 in/hr0.0 mm/hr 0.00 in0.0 mm